Time;durP1;ratioP1;P1;durP2;ratioP2;P2;SDS_P1;SDS_P2;PMS_P1;PMS_P2;Temp;Humidity;BMP_temperature;BMP_pressure;BME280_temperature;BME280_humidity;BME280_pressure;Samples;Min_cycle;Max_cycle;Signal;HPM_P1;HPM_P2
2023/08/11 02:54:31;;;;;;;9.00;7.70;;;;;;;17.86;100.00;100674.79;103331;1281;616383;-44
2023/08/11 02:56:58;;;;;;;7.90;6.90;;;;;;;17.87;100.00;100666.89;104900;1265;60503;-44
2023/08/11 02:59:25;;;;;;;8.30;6.30;;;;;;;17.89;100.00;100668.70;104913;1266;60060;-44
2023/08/11 03:01:52;;;;;;;9.10;5.60;;;;;;;17.91;100.00;100658.84;104799;1266;72018;-45
2023/08/11 03:04:19;;;;;;;9.50;5.60;;;;;;;17.94;100.00;100657.33;104812;1270;65485;-45
2023/08/11 03:06:47;;;;;;;9.40;4.80;;;;;;;17.95;100.00;100660.59;104710;1270;239025;-45
2023/08/11 03:09:14;;;;;;;6.40;4.90;;;;;;;17.97;100.00;100660.70;105196;1267;62057;-45
2023/08/11 03:11:41;;;;;;;4.40;4.00;;;;;;;17.99;100.00;100659.20;105129;1264;60169;-45
2023/08/11 03:14:08;;;;;;;7.40;5.00;;;;;;;18.02;100.00;100661.53;105161;1264;72328;-45
2023/08/11 03:16:35;;;;;;;6.70;4.60;;;;;;;18.05;100.00;100668.52;105138;1266;65473;-45
2023/08/11 03:19:03;;;;;;;6.60;4.60;;;;;;;18.09;100.00;100665.39;104845;1264;72627;-45
2023/08/11 03:21:30;;;;;;;5.00;4.50;;;;;;;18.11;100.00;100660.60;104998;1266;61961;-45
2023/08/11 03:23:59;;;;;;;9.10;4.80;;;;;;;18.10;100.00;100663.11;105212;1262;59506;-45
2023/08/11 03:26:26;;;;;;;8.60;4.90;;;;;;;18.08;100.00;100668.06;105212;1264;72994;-45
2023/08/11 03:28:54;;;;;;;5.60;4.80;;;;;;;18.11;100.00;100670.20;105272;1266;65516;-46
2023/08/11 03:31:22;;;;;;;9.60;5.10;;;;;;;18.13;100.00;100672.37;105204;1263;72476;-46
2023/08/11 03:33:50;;;;;;;6.00;5.40;;;;;;;18.13;100.00;100672.88;105310;1264;60516;-45
2023/08/11 03:36:17;;;;;;;6.90;5.20;;;;;;;18.14;100.00;100672.87;105257;1264;60179;-45
2023/08/11 03:38:44;;;;;;;8.60;5.40;;;;;;;18.15;100.00;100674.23;105262;1264;73089;-45
2023/08/11 03:41:11;;;;;;;8.10;5.60;;;;;;;18.15;100.00;100680.30;105158;1268;65799;-45
2023/08/11 03:43:38;;;;;;;7.50;6.20;;;;;;;18.18;100.00;100685.95;105103;1267;71633;-44
2023/08/11 03:46:05;;;;;;;7.40;6.70;;;;;;;18.19;100.00;100691.84;105255;1266;62119;-45
2023/08/11 03:48:33;;;;;;;9.10;6.80;;;;;;;18.22;100.00;100696.25;105217;1264;59778;-45
2023/08/11 03:51:01;;;;;;;10.10;6.90;;;;;;;18.26;100.00;100697.63;105090;1267;72764;-45
2023/08/11 03:53:30;;;;;;;9.20;7.20;;;;;;;18.30;100.00;100697.27;105516;1263;64160;-45
2023/08/11 03:55:57;;;;;;;7.20;6.40;;;;;;;18.36;100.00;100699.95;105278;1261;72667;-45
2023/08/11 03:58:24;;;;;;;7.10;5.90;;;;;;;18.37;100.00;100703.20;105556;1260;60505;-45
2023/08/11 04:00:53;;;;;;;8.80;6.10;;;;;;;18.36;100.00;100703.44;105528;1260;60189;-46
2023/08/11 04:03:22;;;;;;;11.70;6.00;;;;;;;18.36;100.00;100701.50;105553;1260;73026;-45
2023/08/11 04:05:50;;;;;;;6.50;6.00;;;;;;;18.35;100.00;100695.81;105534;1261;65447;-46
2023/08/11 04:08:17;;;;;;;16.50;7.60;;;;;;;18.35;100.00;100691.96;105552;1261;72612;-46
2023/08/11 04:10:44;;;;;;;12.40;6.70;;;;;;;18.36;100.00;100692.23;105586;1263;61712;-45
2023/08/11 04:13:11;;;;;;;7.40;6.50;;;;;;;18.36;100.00;100697.65;105897;1251;60298;-45
2023/08/11 04:15:39;;;;;;;10.60;6.20;;;;;;;18.37;100.00;100701.46;105989;1254;71998;-45
2023/08/11 04:18:06;;;;;;;7.80;5.80;;;;;;;18.39;100.00;100709.58;105937;1256;64488;-46
2023/08/11 04:20:33;;;;;;;9.10;5.40;;;;;;;18.42;100.00;100707.89;105999;1256;72632;-46
2023/08/11 04:23:03;;;;;;;5.70;5.20;;;;;;;18.45;100.00;100713.17;105968;1251;60364;-46
2023/08/11 04:25:31;;;;;;;6.10;5.50;;;;;;;18.47;100.00;100712.71;106005;1250;59812;-46
2023/08/11 04:27:59;;;;;;;4.50;4.10;;;;;;;18.48;100.00;100720.86;105947;1256;72980;-46
2023/08/11 04:30:26;;;;;;;4.80;4.30;;;;;;;18.48;100.00;100725.43;105955;1256;65454;-46
2023/08/11 04:32:53;;;;;;;5.60;4.70;;;;;;;18.50;100.00;100726.56;105946;1251;72476;-46
2023/08/11 04:35:20;;;;;;;6.80;4.20;;;;;;;18.52;100.00;100726.81;105897;1256;61853;-46
2023/08/11 04:37:49;;;;;;;6.60;4.20;;;;;;;18.54;100.00;100720.42;105968;1251;60291;-46
2023/08/11 04:40:17;;;;;;;5.50;4.30;;;;;;;18.55;100.00;100716.50;105938;1256;70942;-46
2023/08/11 04:42:46;;;;;;;7.80;3.70;;;;;;;18.57;100.00;100712.23;105951;1257;65462;-46
2023/08/11 04:45:15;;;;;;;7.00;3.70;;;;;;;18.58;100.00;100706.63;105989;1256;71412;-46
2023/08/11 04:47:43;;;;;;;8.00;3.90;;;;;;;18.58;100.00;100700.83;105856;1256;61634;-46
2023/08/11 04:50:12;;;;;;;7.00;3.70;;;;;;;18.60;100.00;100691.80;105977;1251;60260;-46
2023/08/11 04:52:39;;;;;;;3.70;3.40;;;;;;;18.64;100.00;100694.61;105887;1257;72978;-44
2023/08/11 04:55:07;;;;;;;7.30;3.40;;;;;;;18.66;100.00;100693.95;105991;1255;65393;-44
2023/08/11 04:57:35;;;;;;;10.60;3.20;;;;;;;18.69;100.00;100694.90;105875;1251;72609;-44
2023/08/11 05:00:06;;;;;;;4.00;3.40;;;;;;;18.72;100.00;100696.68;105962;1251;60558;-45
2023/08/11 05:02:33;;;;;;;7.40;3.20;;;;;;;18.76;100.00;100700.48;105990;1251;60151;-44
2023/08/11 05:05:01;;;;;;;3.10;2.90;;;;;;;18.81;100.00;100702.86;105955;1256;72948;-44
2023/08/11 05:07:29;;;;;;;3.20;3.00;;;;;;;18.85;100.00;100698.47;105968;1256;65973;-44
2023/08/11 05:09:55;;;;;;;7.70;3.10;;;;;;;18.89;100.00;100697.42;105966;1251;72550;-44
2023/08/11 05:12:22;;;;;;;9.00;3.20;;;;;;;18.93;100.00;100694.59;105965;1257;61665;-45
2023/08/11 05:14:49;;;;;;;4.30;3.40;;;;;;;18.99;100.00;100691.70;105942;1251;60161;-44
2023/08/11 05:17:16;;;;;;;3.80;3.20;;;;;;;19.07;100.00;100692.02;105923;1254;72953;-44
2023/08/11 05:19:43;;;;;;;4.10;3.00;;;;;;;19.18;100.00;100694.76;105958;1251;65368;-44
2023/08/11 05:22:11;;;;;;;3.00;2.80;;;;;;;19.21;100.00;100699.52;105915;1256;72557;-44
2023/08/11 05:24:38;;;;;;;3.50;3.00;;;;;;;19.28;100.00;100708.79;105959;1255;61901;-44
2023/08/11 05:27:05;;;;;;;7.40;2.90;;;;;;;19.42;100.00;100698.48;105993;1251;59724;-44
2023/08/11 05:29:32;;;;;;;4.90;3.10;;;;;;;19.54;100.00;100689.63;105966;1251;73061;-44
2023/08/11 05:32:00;;;;;;;4.40;2.70;;;;;;;19.60;100.00;100685.29;105984;1251;65556;-44
2023/08/11 05:34:27;;;;;;;5.10;3.20;;;;;;;19.66;100.00;100688.46;105944;1250;72732;-45
2023/08/11 05:36:53;;;;;;;3.40;3.10;;;;;;;19.67;100.00;100687.68;105996;1256;61643;-44
2023/08/11 07:42:18;;;;;;;5.10;4.20;;;;;;;21.59;100.00;101273.73;103583;1284;618747;-44
2023/08/11 07:44:45;;;;;;;8.00;3.90;;;;;;;21.56;100.00;101262.81;105214;1269;61926;-44
2023/08/11 07:47:12;;;;;;;5.90;4.10;;;;;;;21.60;100.00;101268.75;105240;1264;60339;-44
2023/08/11 07:49:39;;;;;;;4.00;3.60;;;;;;;21.66;100.00;101266.31;105229;1267;73295;-45
2023/08/11 07:52:06;;;;;;;7.20;3.50;;;;;;;21.73;100.00;101266.51;105353;1264;65328;-45
2023/08/11 07:54:33;;;;;;;7.60;3.50;;;;;;;21.84;100.00;101257.17;105246;1257;260018;-44
2023/08/11 07:57:00;;;;;;;7.80;3.50;;;;;;;21.96;100.00;101249.84;105644;1263;61805;-45
2023/08/11 07:59:27;;;;;;;3.60;3.40;;;;;;;22.07;100.00;101248.56;105623;1258;60227;-45
2023/08/11 08:01:54;;;;;;;3.90;3.40;;;;;;;22.18;100.00;101253.59;105460;1257;72215;-47
2023/08/11 08:04:21;;;;;;;9.20;3.30;;;;;;;22.28;100.00;101258.48;105227;1258;65360;-46
2023/08/11 08:06:47;;;;;;;5.50;4.50;;;;;;;22.35;100.00;101261.42;105561;1263;72775;-49
2023/08/11 08:09:14;;;;;;;5.40;3.90;;;;;;;22.40;100.00;101267.54;105794;1254;61776;-45
2023/08/11 08:11:43;;;;;;;6.20;3.90;;;;;;;22.46;100.00;101266.48;105829;1254;60343;-45
2023/08/11 08:14:11;;;;;;;4.10;3.50;;;;;;;22.49;100.00;101259.98;105886;1255;72928;-45
2023/08/11 08:16:38;;;;;;;5.10;3.20;;;;;;;22.54;100.00;101254.80;105815;1257;65603;-45
2023/08/11 08:19:05;;;;;;;4.00;3.40;;;;;;;22.59;100.00;101250.80;105820;1254;72639;-45
2023/08/11 08:21:32;;;;;;;4.70;4.20;;;;;;;22.61;100.00;101250.69;105811;1253;62433;-45
2023/08/11 08:24:00;;;;;;;4.80;3.70;;;;;;;22.56;100.00;101241.70;105839;1253;60115;-45
2023/08/11 08:26:27;;;;;;;6.80;4.70;;;;;;;22.52;100.00;101234.66;105802;1257;73069;-46
2023/08/11 08:28:54;;;;;;;8.40;6.30;;;;;;;22.60;100.00;101226.33;105813;1257;64500;-45
2023/08/11 08:31:20;;;;;;;7.90;6.00;;;;;;;22.63;100.00;101213.85;105806;1254;72695;-45
2023/08/11 08:33:47;;;;;;;11.40;6.60;;;;;;;22.57;100.00;101199.40;105843;1257;61928;-45
2023/08/11 08:36:16;;;;;;;16.70;9.00;;;;;;;22.51;100.00;101189.57;105808;1254;60267;-46
2023/08/11 08:38:43;;;;;;;12.50;6.60;;;;;;;22.47;100.00;101180.31;105886;1254;73025;-45
2023/08/11 08:41:10;;;;;;;5.60;4.70;;;;;;;22.47;100.00;101173.27;105803;1254;65329;-45
2023/08/11 08:43:37;;;;;;;6.90;3.90;;;;;;;22.49;100.00;101171.02;105574;1257;72721;-45
2023/08/11 08:46:04;;;;;;;8.30;3.70;;;;;;;22.53;100.00;101160.77;105570;1257;61885;-45
2023/08/11 08:48:44;;;;;;;6.40;3.50;;;;;;;22.55;100.00;101154.34;105556;1257;60308;-45
2023/08/11 08:51:11;;;;;;;6.20;3.30;;;;;;;22.54;100.00;101158.42;105655;1257;71714;-45
2023/08/11 08:53:38;;;;;;;4.00;3.00;;;;;;;22.54;100.00;101161.09;105600;1263;65201;-45
2023/08/11 08:56:06;;;;;;;4.90;3.60;;;;;;;22.54;100.00;101136.66;105625;1257;72741;-45
2023/08/11 08:58:33;;;;;;;4.70;3.30;;;;;;;22.57;100.00;101119.97;105657;1260;61034;-45
2023/08/11 09:01:01;;;;;;;4.60;3.00;;;;;;;22.61;100.00;101127.77;105644;1258;61075;-46
2023/08/11 09:03:30;;;;;;;3.60;3.30;;;;;;;22.62;100.00;101124.93;105623;1255;72946;-45
2023/08/11 09:05:57;;;;;;;4.10;3.80;;;;;;;22.63;100.00;101122.74;105658;1260;65564;-45
2023/08/11 09:08:24;;;;;;;3.70;2.90;;;;;;;22.65;100.00;101116.85;105670;1259;72633;-45
2023/08/11 09:10:51;;;;;;;3.70;3.20;;;;;;;22.61;100.00;101112.50;105627;1259;62417;-45
2023/08/11 09:13:20;;;;;;;5.40;3.40;;;;;;;22.63;100.00;101129.11;105562;1257;60349;-45
2023/08/11 09:15:47;;;;;;;7.60;3.30;;;;;;;22.60;100.00;101118.71;105660;1260;72895;-45
2023/08/11 09:18:16;;;;;;;3.90;3.20;;;;;;;22.56;100.00;101112.61;105629;1263;65502;-45
2023/08/11 09:20:47;;;;;;;5.20;3.40;;;;;;;22.54;100.00;101136.96;105678;1260;72518;-45
2023/08/11 09:23:16;;;;;;;3.70;3.20;;;;;;;22.46;100.00;101145.71;105635;1259;62044;-45
2023/08/11 09:25:43;;;;;;;3.50;3.30;;;;;;;22.33;100.00;101161.71;105691;1257;60262;-45
2023/08/11 09:28:10;;;;;;;3.40;3.20;;;;;;;22.18;100.00;101163.45;105667;1259;72882;-45
2023/08/11 09:30:38;;;;;;;3.30;3.10;;;;;;;22.09;100.00;101167.45;105665;1259;65526;-45
2023/08/11 09:33:07;;;;;;;5.40;4.00;;;;;;;22.06;100.00;101178.29;105621;1255;72485;-45
2023/08/11 09:35:35;;;;;;;5.60;4.00;;;;;;;22.12;100.00;101194.85;105687;1260;61762;-45
2023/08/11 09:38:02;;;;;;;3.10;2.90;;;;;;;22.17;100.00;101204.95;105652;1255;59617;-45
2023/08/11 09:40:31;;;;;;;7.50;3.80;;;;;;;22.19;100.00;101205.71;105633;1256;73094;-45
2023/08/11 09:42:58;;;;;;;3.60;3.30;;;;;;;22.23;100.00;101206.93;105693;1256;65600;-45
2023/08/11 09:45:25;;;;;;;3.60;3.30;;;;;;;22.30;100.00;101200.70;105954;1251;72417;-46
2023/08/11 09:47:52;;;;;;;5.90;3.30;;;;;;;22.36;100.00;101189.30;105962;1251;61912;-45
2023/08/11 09:50:21;;;;;;;3.20;3.00;;;;;;;22.37;100.00;101171.48;105935;1251;60260;-45
2023/08/11 09:52:47;;;;;;;6.80;3.10;;;;;;;22.39;100.00;101158.90;105994;1251;73032;-45
2023/08/11 09:55:14;;;;;;;3.50;3.20;;;;;;;22.38;100.00;101134.33;105997;1255;65496;-45
2023/08/11 09:57:41;;;;;;;6.30;3.00;;;;;;;22.37;100.00;101122.63;105938;1256;72701;-45
2023/08/11 10:00:12;;;;;;;3.30;3.00;;;;;;;22.43;100.00;101135.52;105943;1257;61893;-45
2023/08/11 10:03:09;;;;;;;6.30;3.20;;;;;;;22.48;100.00;101136.27;106012;1251;60176;-45
2023/08/11 10:05:42;;;;;;;3.30;3.00;;;;;;;22.47;100.00;101122.60;105942;1251;72948;-45
2023/08/11 10:08:11;;;;;;;5.40;2.90;;;;;;;22.47;100.00;101108.19;105960;1256;65363;-45
2023/08/11 10:10:38;;;;;;;3.20;2.90;;;;;;;22.44;100.00;101071.58;105991;1251;72696;-45
2023/08/11 10:13:10;;;;;;;3.30;3.00;;;;;;;22.41;100.00;101066.83;105935;1256;61913;-45
2023/08/11 10:15:39;;;;;;;5.30;3.10;;;;;;;22.41;100.00;101080.73;105968;1251;60219;-45
2023/08/11 10:18:06;;;;;;;5.20;3.10;;;;;;;22.42;100.00;101090.90;105921;1254;73141;-45
2023/08/11 10:20:33;;;;;;;14.20;3.70;;;;;;;22.38;100.00;101087.25;105978;1255;65365;-45
2023/08/11 10:23:01;;;;;;;3.40;3.10;;;;;;;22.37;100.00;101104.34;105981;1251;72579;-45
2023/08/11 10:25:28;;;;;;;4.20;3.30;;;;;;;22.36;100.00;101118.99;105951;1251;61989;-45
2023/08/11 10:27:56;;;;;;;6.50;3.30;;;;;;;22.34;100.00;101137.94;105992;1251;60184;-45
2023/08/11 10:30:23;;;;;;;4.10;3.30;;;;;;;22.29;100.00;101148.22;105971;1251;73160;-45
2023/08/11 10:32:56;;;;;;;4.30;3.20;;;;;;;22.26;100.00;101157.19;105974;1251;63339;-46
2023/08/11 10:35:35;;;;;;;10.20;4.00;;;;;;;22.23;100.00;101157.16;105886;1251;72616;-47
2023/08/11 10:38:03;;;;;;;4.80;3.20;;;;;;;22.18;100.00;101155.85;105976;1256;60856;-47
2023/08/11 10:40:35;;;;;;;4.80;3.30;;;;;;;22.14;100.00;101157.52;105993;1251;59996;-46
2023/08/11 10:43:03;;;;;;;3.90;3.10;;;;;;;22.05;100.00;101163.98;105973;1255;73138;-46
2023/08/11 10:45:34;;;;;;;3.80;3.50;;;;;;;21.94;100.00;101174.05;106002;1251;65676;-47
2023/08/11 10:48:09;;;;;;;4.20;3.70;;;;;;;21.84;100.00;101175.30;106005;1251;72752;-46
2023/08/11 10:50:37;;;;;;;5.50;3.40;;;;;;;21.74;100.00;101170.77;105932;1253;61652;-45
2023/08/11 10:53:19;;;;;;;5.50;4.20;;;;;;;21.66;100.00;101169.24;106003;1251;60250;-45
2023/08/11 10:56:00;;;;;;;3.60;3.40;;;;;;;21.59;100.00;101163.26;106005;1251;71470;-47
2023/08/11 10:58:29;;;;;;;4.40;4.00;;;;;;;21.54;100.00;101160.52;105967;1256;65351;-47
2023/08/11 11:00:59;;;;;;;4.60;3.60;;;;;;;21.50;100.00;101160.06;105976;1251;72618;-44
2023/08/11 11:03:26;;;;;;;4.00;3.60;;;;;;;21.44;100.00;101158.98;105972;1255;61919;-44
2023/08/11 11:05:54;;;;;;;6.20;3.90;;;;;;;21.37;100.00;101154.77;106002;1251;60366;-44
2023/08/11 11:08:21;;;;;;;4.10;3.50;;;;;;;21.31;100.00;101151.92;105907;1256;73052;-44
2023/08/11 11:10:48;;;;;;;7.80;4.10;;;;;;;21.22;100.00;101146.77;105926;1256;65503;-45
2023/08/11 11:13:17;;;;;;;9.40;4.30;;;;;;;21.17;100.00;101136.16;105977;1251;72684;-44
2023/08/11 11:15:45;;;;;;;4.50;4.10;;;;;;;21.11;100.00;101121.74;105941;1256;62301;-44
2023/08/11 11:18:13;;;;;;;7.80;3.80;;;;;;;21.04;100.00;101106.81;105973;1251;59790;-45
2023/08/11 11:20:39;;;;;;;4.10;3.80;;;;;;;20.98;100.00;101092.59;105906;1253;72876;-44
2023/08/11 11:23:06;;;;;;;4.60;4.30;;;;;;;20.93;100.00;101084.08;106063;1255;65901;-44
2023/08/11 11:25:33;;;;;;;6.30;4.80;;;;;;;20.90;100.00;101075.63;105950;1251;72964;-45
2023/08/11 11:28:00;;;;;;;5.30;4.70;;;;;;;20.87;100.00;101076.86;105976;1255;61631;-45
2023/08/11 11:30:28;;;;;;;5.60;4.10;;;;;;;20.84;100.00;101068.75;106011;1251;60382;-45
2023/08/11 11:32:56;;;;;;;13.30;6.00;;;;;;;20.81;100.00;101059.05;105979;1255;73125;-45
2023/08/11 11:35:24;;;;;;;14.60;5.80;;;;;;;20.75;100.00;101050.94;105960;1255;65599;-45
2023/08/11 11:37:51;;;;;;;12.20;6.00;;;;;;;20.68;100.00;101044.66;105971;1251;73073;-45
2023/08/11 11:40:18;;;;;;;9.10;6.10;;;;;;;20.54;100.00;101037.84;105882;1256;62515;-45
2023/08/11 11:42:46;;;;;;;13.00;6.90;;;;;;;20.39;100.00;101025.58;105933;1253;60274;-45
2023/08/11 11:45:13;;;;;;;16.90;6.50;;;;;;;20.25;100.00;101008.95;105976;1251;73168;-45
2023/08/11 11:47:40;;;;;;;8.30;6.20;;;;;;;20.10;100.00;100986.76;106024;1255;65497;-45
2023/08/11 11:50:09;;;;;;;10.90;6.50;;;;;;;19.88;100.00;100961.34;105966;1251;72690;-45
2023/08/11 11:52:36;;;;;;;8.70;6.10;;;;;;;19.69;100.00;100931.27;105989;1257;60708;-45
2023/08/11 11:55:05;;;;;;;8.40;6.50;;;;;;;19.56;100.00;100901.44;105942;1251;60344;-46
2023/08/11 11:57:33;;;;;;;8.30;6.40;;;;;;;19.45;100.00;100876.11;105941;1251;72579;-45
2023/08/11 12:00:02;;;;;;;11.70;6.30;;;;;;;19.35;100.00;100855.41;105977;1256;66833;-44
2023/08/11 12:02:40;;;;;;;8.60;7.10;;;;;;;19.22;100.00;100831.20;106012;1257;72670;-44
2023/08/11 12:05:08;;;;;;;10.50;6.70;;;;;;;19.16;100.00;100815.23;105732;1251;61824;-44
2023/08/11 12:07:36;;;;;;;11.60;7.40;;;;;;;19.11;100.00;100803.55;105974;1251;62184;-45
2023/08/11 12:10:07;;;;;;;26.30;15.40;;;;;;;19.06;100.00;100789.48;106004;1256;73640;-45
2023/08/11 12:12:34;;;;;;;16.10;12.00;;;;;;;19.04;100.00;100766.13;106016;1255;64010;-45
2023/08/11 12:15:08;;;;;;;8.50;6.30;;;;;;;19.05;100.00;100747.55;105950;1251;72547;-45
2023/08/11 12:17:36;;;;;;;5.00;4.40;;;;;;;19.05;100.00;100729.17;105981;1251;60530;-44
2023/08/11 12:20:05;;;;;;;10.50;6.90;;;;;;;19.07;100.00;100715.95;105943;1251;60393;-45
2023/08/11 12:22:32;;;;;;;11.30;7.30;;;;;;;19.07;100.00;100699.48;105950;1256;71889;-45
2023/08/11 12:24:58;;;;;;;13.00;5.80;;;;;;;19.06;100.00;100688.73;106001;1255;65416;-45
2023/08/11 12:27:25;;;;;;;7.70;4.80;;;;;;;19.07;100.00;100673.64;105999;1251;72597;-44
2023/08/11 12:29:52;;;;;;;5.90;5.10;;;;;;;19.08;100.00;100663.64;105899;1252;60582;-46
2023/08/11 12:32:19;;;;;;;7.80;6.30;;;;;;;19.11;100.00;100659.63;105965;1253;60437;-45
2023/08/11 12:35:04;;;;;;;5.70;4.70;;;;;;;19.07;100.00;100658.59;106028;1251;72623;-45
2023/08/11 12:37:32;;;;;;;5.80;5.30;;;;;;;19.07;100.00;100650.38;105994;1257;65451;-44
2023/08/11 12:39:59;;;;;;;11.20;7.50;;;;;;;19.09;100.00;100641.72;105997;1255;72640;-45
2023/08/11 12:42:26;;;;;;;5.90;5.30;;;;;;;19.10;100.00;100638.84;106004;1256;61833;-45
2023/08/11 12:44:52;;;;;;;7.90;5.00;;;;;;;19.10;100.00;100639.73;105964;1251;60392;-44
2023/08/11 12:47:21;;;;;;;3.20;3.00;;;;;;;19.11;100.00;100636.03;105992;1255;73679;-45
2023/08/11 12:49:48;;;;;;;4.60;2.70;;;;;;;19.02;100.00;100634.70;105982;1251;65524;-44
2023/08/11 12:52:15;;;;;;;3.40;3.20;;;;;;;18.94;100.00;100632.30;105914;1251;72487;-45
2023/08/11 12:54:42;;;;;;;4.10;3.30;;;;;;;18.87;100.00;100627.42;105901;1256;61817;-44
2023/08/11 12:57:09;;;;;;;3.00;2.80;;;;;;;18.83;100.00;100619.93;105985;1251;60446;-45
2023/08/11 12:59:35;;;;;;;2.10;2.00;;;;;;;18.76;100.00;100618.52;105926;1256;73792;-47
2023/08/11 13:02:02;;;;;;;4.20;1.80;;;;;;;18.68;100.00;100617.52;105901;1255;65458;-45
2023/08/11 13:04:30;;;;;;;3.40;1.70;;;;;;;18.64;100.00;100623.66;105868;1257;72313;-47
2023/08/11 13:06:56;;;;;;;3.00;1.70;;;;;;;18.54;100.00;100627.63;105946;1251;62004;-44
2023/08/11 13:09:29;;;;;;;4.00;1.70;;;;;;;18.46;100.00;100633.25;105935;1251;60392;-45
2023/08/11 13:11:56;;;;;;;2.80;1.70;;;;;;;18.42;100.00;100637.10;105943;1252;73659;-45
2023/08/11 13:14:23;;;;;;;2.10;2.00;;;;;;;18.38;100.00;100637.63;105984;1257;65421;-45
2023/08/11 13:16:50;;;;;;;2.40;1.90;;;;;;;18.40;100.00;100630.95;106012;1251;72708;-45
2023/08/11 13:19:17;;;;;;;1.90;1.60;;;;;;;18.38;100.00;100624.90;105987;1257;60523;-45
2023/08/11 13:21:44;;;;;;;2.60;1.80;;;;;;;18.37;100.00;100630.69;105994;1251;60462;-45
2023/08/11 13:24:11;;;;;;;1.60;1.60;;;;;;;18.36;100.00;100642.83;105972;1251;72761;-44
2023/08/11 13:26:38;;;;;;;3.70;1.30;;;;;;;18.34;100.00;100652.53;105974;1255;64468;-44
2023/08/11 13:29:05;;;;;;;4.10;1.40;;;;;;;18.33;100.00;100656.59;105948;1252;72539;-44
2023/08/11 13:31:32;;;;;;;1.50;1.40;;;;;;;18.37;100.00;100651.33;106033;1251;62009;-44
2023/08/11 13:33:59;;;;;;;2.00;1.80;;;;;;;18.45;100.00;100646.95;106003;1251;60425;-44
2023/08/11 13:36:26;;;;;;;2.00;1.70;;;;;;;18.49;100.00;100643.92;105980;1251;73759;-44
2023/08/11 13:38:53;;;;;;;4.40;1.90;;;;;;;18.53;100.00;100639.38;106031;1251;65311;-44
2023/08/11 13:41:20;;;;;;;3.60;2.50;;;;;;;18.52;100.00;100636.81;105997;1251;72454;-45
2023/08/11 13:43:47;;;;;;;5.20;2.60;;;;;;;18.59;100.00;100635.79;105995;1257;61921;-44
2023/08/11 13:46:14;;;;;;;7.00;3.80;;;;;;;18.69;100.00;100632.30;105955;1252;60452;-44
2023/08/11 13:48:41;;;;;;;7.80;4.00;;;;;;;18.73;100.00;100628.14;105951;1251;73759;-44
2023/08/11 13:51:08;;;;;;;9.00;4.40;;;;;;;18.78;100.00;100622.10;105985;1251;65508;-44
2023/08/11 13:53:35;;;;;;;7.10;3.10;;;;;;;18.83;100.00;100621.16;105983;1251;72494;-44
2023/08/11 13:56:02;;;;;;;3.00;1.90;;;;;;;18.91;100.00;100625.80;105977;1251;62893;-46
2023/08/11 13:58:29;;;;;;;8.90;2.80;;;;;;;18.93;100.00;100631.10;105981;1252;60605;-45
2023/08/11 14:00:56;;;;;;;3.20;2.00;;;;;;;18.96;100.00;100643.73;105935;1255;73754;-46
2023/08/11 14:03:23;;;;;;;2.60;2.20;;;;;;;19.03;100.00;100654.96;105954;1251;65485;-45
2023/08/11 14:05:50;;;;;;;6.10;2.20;;;;;;;19.11;100.00;100661.05;105919;1251;72605;-45
2023/08/11 14:08:16;;;;;;;8.20;3.30;;;;;;;19.07;100.00;100658.06;105958;1251;61624;-45
2023/08/11 14:10:43;;;;;;;6.40;3.00;;;;;;;19.05;100.00;100658.35;105924;1251;60671;-45
2023/08/11 14:13:10;;;;;;;3.00;2.30;;;;;;;19.08;100.00;100663.63;105983;1252;73675;-45
2023/08/11 14:15:38;;;;;;;1.70;1.50;;;;;;;19.11;100.00;100671.85;105952;1251;65425;-45
2023/08/11 14:18:06;;;;;;;7.50;1.30;;;;;;;19.11;100.00;100674.31;105999;1257;72308;-45
2023/08/11 14:20:33;;;;;;;1.60;1.50;;;;;;;19.17;100.00;100679.45;106018;1252;60936;-45
2023/08/11 14:23:00;;;;;;;4.00;1.20;;;;;;;19.34;100.00;100671.59;105978;1251;60434;-45
2023/08/11 14:25:27;;;;;;;1.30;1.10;;;;;;;19.44;100.00;100661.09;105960;1252;73760;-45
2023/08/11 14:27:54;;;;;;;2.50;1.00;;;;;;;19.44;100.00;100655.11;105966;1251;65512;-46
2023/08/11 14:30:21;;;;;;;1.10;1.00;;;;;;;19.49;100.00;100651.05;105967;1252;72500;-45
2023/08/11 14:32:48;;;;;;;1.80;1.30;;;;;;;19.57;100.00;100653.58;105974;1251;61983;-45
2023/08/11 14:35:16;;;;;;;3.40;1.30;;;;;;;19.64;100.00;100657.59;106029;1251;60453;-45
2023/08/11 14:37:43;;;;;;;3.80;1.10;;;;;;;19.60;100.00;100666.20;105955;1256;73889;-46
2023/08/11 14:40:11;;;;;;;6.90;1.20;;;;;;;19.57;100.00;100669.85;105955;1256;65462;-46
2023/08/11 14:42:38;;;;;;;2.20;1.60;;;;;;;19.54;100.00;100668.11;105993;1251;72702;-46
2023/08/11 14:45:05;;;;;;;4.90;1.20;;;;;;;19.38;100.00;100666.64;106045;1251;62706;-44
2023/08/11 14:47:32;;;;;;;2.60;1.00;;;;;;;19.24;100.00;100671.02;105915;1253;60433;-47
2023/08/11 14:49:59;;;;;;;8.40;1.40;;;;;;;19.12;100.00;100674.60;105933;1255;73687;-45
2023/08/11 14:52:26;;;;;;;1.60;1.20;;;;;;;18.99;100.00;100677.90;106022;1251;65517;-46
2023/08/11 14:54:53;;;;;;;6.60;1.30;;;;;;;18.86;100.00;100678.14;105939;1251;72622;-46
2023/08/11 14:57:22;;;;;;;3.90;1.30;;;;;;;18.79;100.00;100676.89;105947;1251;61941;-46
2023/08/11 14:59:49;;;;;;;1.80;1.30;;;;;;;18.74;100.00;100674.54;105972;1252;60405;-45
2023/08/11 15:02:16;;;;;;;1.90;1.20;;;;;;;18.71;100.00;100677.16;105996;1256;73699;-45
2023/08/11 15:04:43;;;;;;;6.30;1.70;;;;;;;18.65;100.00;100677.74;105985;1256;65306;-46
2023/08/11 15:07:10;;;;;;;5.60;1.30;;;;;;;18.61;100.00;100672.70;105972;1252;72603;-46
2023/08/11 15:09:38;;;;;;;1.50;1.10;;;;;;;18.58;100.00;100666.42;105946;1251;60829;-46
2023/08/11 15:12:06;;;;;;;2.20;1.20;;;;;;;18.53;100.00;100662.80;105949;1251;60503;-46
2023/08/11 15:14:33;;;;;;;4.00;1.10;;;;;;;18.48;100.00;100660.08;105976;1251;73869;-44
2023/08/11 15:17:00;;;;;;;1.00;0.90;;;;;;;18.43;100.00;100653.48;106008;1255;65552;-44
2023/08/11 15:19:29;;;;;;;2.40;1.00;;;;;;;18.40;100.00;100651.20;105986;1251;72651;-44
2023/08/11 15:21:56;;;;;;;4.80;1.30;;;;;;;18.36;100.00;100650.67;105949;1251;61855;-44
2023/08/11 15:24:22;;;;;;;1.50;1.30;;;;;;;18.34;100.00;100651.48;105934;1251;60462;-44
2023/08/11 15:26:49;;;;;;;2.00;1.50;;;;;;;18.32;100.00;100648.96;105891;1252;73747;-45
2023/08/11 15:29:16;;;;;;;4.00;1.20;;;;;;;18.31;100.00;100647.61;105971;1255;65380;-45
2023/08/11 15:31:43;;;;;;;2.00;1.30;;;;;;;18.30;100.00;100651.83;105976;1251;72761;-47
2023/08/11 15:34:10;;;;;;;2.20;1.60;;;;;;;18.29;100.00;100653.27;105997;1256;60696;-52
2023/08/11 15:36:37;;;;;;;2.40;1.80;;;;;;;18.29;100.00;100648.03;105933;1251;60518;-45
2023/08/11 15:39:04;;;;;;;1.40;1.30;;;;;;;18.27;100.00;100644.45;106073;1251;73892;-45
2023/08/11 15:41:31;;;;;;;4.20;1.50;;;;;;;18.26;100.00;100644.67;105935;1255;65434;-45
2023/08/11 15:43:58;;;;;;;1.30;1.20;;;;;;;18.25;100.00;100643.16;105916;1251;72593;-45
2023/08/11 15:46:25;;;;;;;7.50;1.20;;;;;;;18.25;100.00;100643.86;105903;1251;61987;-45
2023/08/11 15:48:52;;;;;;;4.20;1.30;;;;;;;18.25;100.00;100643.88;105973;1251;60459;-45
2023/08/11 15:51:19;;;;;;;1.40;1.20;;;;;;;18.24;100.00;100647.39;106012;1251;73925;-46
2023/08/11 15:53:46;;;;;;;2.10;1.10;;;;;;;18.24;100.00;100651.92;105966;1251;65365;-45
2023/08/11 15:56:13;;;;;;;6.10;1.20;;;;;;;18.24;100.00;100654.20;105921;1256;72503;-45
2023/08/11 15:58:40;;;;;;;5.60;1.10;;;;;;;18.24;100.00;100656.48;105928;1255;61966;-45
2023/08/11 16:01:08;;;;;;;7.40;1.60;;;;;;;18.24;100.00;100657.35;105996;1251;60522;-45
2023/08/11 16:03:35;;;;;;;1.50;1.20;;;;;;;18.22;100.00;100657.11;106001;1252;73777;-45
2023/08/11 16:06:03;;;;;;;1.80;1.50;;;;;;;18.21;100.00;100662.91;106000;1252;64546;-45
2023/08/11 16:08:32;;;;;;;4.50;1.40;;;;;;;18.20;100.00;100662.78;105945;1255;72470;-45